sensor_id;sensor_type;location;lat;lon;timestamp;temperature;humidity
15384;DHT22;7790;53.022;12.968;2023-07-13T00:01:17;20.70;53.10
15384;DHT22;7790;53.022;12.968;2023-07-13T00:05:18;20.60;52.90
15384;DHT22;7790;53.022;12.968;2023-07-13T00:09:20;20.60;52.80
15384;DHT22;7790;53.022;12.968;2023-07-13T00:13:21;20.50;52.80
15384;DHT22;7790;53.022;12.968;2023-07-13T00:17:22;20.40;53.10
15384;DHT22;7790;53.022;12.968;2023-07-13T00:21:23;20.00;53.00
15384;DHT22;7790;53.022;12.968;2023-07-13T00:25:25;19.70;54.30
15384;DHT22;7790;53.022;12.968;2023-07-13T00:29:29;19.80;54.10
15384;DHT22;7790;53.022;12.968;2023-07-13T00:33:31;19.80;53.80
15384;DHT22;7790;53.022;12.968;2023-07-13T00:37:33;19.50;54.50
15384;DHT22;7790;53.022;12.968;2023-07-13T00:41:36;19.40;55.00
15384;DHT22;7790;53.022;12.968;2023-07-13T00:49:45;19.60;54.40
15384;DHT22;7790;53.022;12.968;2023-07-13T00:53:46;19.40;54.40
15384;DHT22;7790;53.022;12.968;2023-07-13T00:57:47;19.10;55.00
15384;DHT22;7790;53.022;12.968;2023-07-13T01:01:48;19.10;55.00
15384;DHT22;7790;53.022;12.968;2023-07-13T01:05:50;19.40;54.80
15384;DHT22;7790;53.022;12.968;2023-07-13T01:09:52;19.60;54.50
15384;DHT22;7790;53.022;12.968;2023-07-13T01:13:54;19.70;54.30
15384;DHT22;7790;53.022;12.968;2023-07-13T01:17:55;19.70;54.60
15384;DHT22;7790;53.022;12.968;2023-07-13T01:21:56;19.70;54.60
15384;DHT22;7790;53.022;12.968;2023-07-13T01:25:57;19.60;55.40
15384;DHT22;7790;53.022;12.968;2023-07-13T01:29:58;19.50;55.30
15384;DHT22;7790;53.022;12.968;2023-07-13T01:34:04;19.60;55.20
15384;DHT22;7790;53.022;12.968;2023-07-13T01:38:05;19.70;55.50
15384;DHT22;7790;53.022;12.968;2023-07-13T01:42:06;19.90;54.90
15384;DHT22;7790;53.022;12.968;2023-07-13T01:46:08;19.90;54.40
15384;DHT22;7790;53.022;12.968;2023-07-13T01:50:09;19.80;54.50
15384;DHT22;7790;53.022;12.968;2023-07-13T01:54:10;19.70;54.90
15384;DHT22;7790;53.022;12.968;2023-07-13T01:58:11;19.70;55.00
15384;DHT22;7790;53.022;12.968;2023-07-13T02:02:13;19.60;55.00
15384;DHT22;7790;53.022;12.968;2023-07-13T02:06:14;19.60;55.00
15384;DHT22;7790;53.022;12.968;2023-07-13T02:10:15;19.50;55.30
15384;DHT22;7790;53.022;12.968;2023-07-13T02:14:16;19.40;55.80
15384;DHT22;7790;53.022;12.968;2023-07-13T02:18:18;19.50;55.60
15384;DHT22;7790;53.022;12.968;2023-07-13T02:22:19;19.30;55.90
15384;DHT22;7790;53.022;12.968;2023-07-13T02:26:20;19.30;56.20
15384;DHT22;7790;53.022;12.968;2023-07-13T02:30:22;19.30;56.10
15384;DHT22;7790;53.022;12.968;2023-07-13T02:34:30;19.30;56.00
15384;DHT22;7790;53.022;12.968;2023-07-13T02:38:32;19.10;56.20
15384;DHT22;7790;53.022;12.968;2023-07-13T02:42:36;19.10;56.30
15384;DHT22;7790;53.022;12.968;2023-07-13T02:46:37;19.20;56.30
15384;DHT22;7790;53.022;12.968;2023-07-13T02:50:38;19.30;56.40
15384;DHT22;7790;53.022;12.968;2023-07-13T02:54:39;19.30;56.00
15384;DHT22;7790;53.022;12.968;2023-07-13T02:58:40;19.30;56.30
15384;DHT22;7790;53.022;12.968;2023-07-13T03:02:41;19.20;56.30
15384;DHT22;7790;53.022;12.968;2023-07-13T03:06:42;19.30;56.70
15384;DHT22;7790;53.022;12.968;2023-07-13T03:10:43;19.30;56.50
15384;DHT22;7790;53.022;12.968;2023-07-13T03:14:45;19.40;56.40
15384;DHT22;7790;53.022;12.968;2023-07-13T03:18:48;19.50;56.00
15384;DHT22;7790;53.022;12.968;2023-07-13T03:22:49;19.50;56.00
15384;DHT22;7790;53.022;12.968;2023-07-13T03:26:52;19.50;55.80
15384;DHT22;7790;53.022;12.968;2023-07-13T03:31:15;19.60;55.70
15384;DHT22;7790;53.022;12.968;2023-07-13T03:35:17;19.60;55.70
15384;DHT22;7790;53.022;12.968;2023-07-13T03:39:18;19.50;55.50
15384;DHT22;7790;53.022;12.968;2023-07-13T03:43:26;19.50;55.30
15384;DHT22;7790;53.022;12.968;2023-07-13T03:47:27;19.50;55.50
15384;DHT22;7790;53.022;12.968;2023-07-13T03:51:29;19.50;55.60
15384;DHT22;7790;53.022;12.968;2023-07-13T03:55:30;19.50;55.60
15384;DHT22;7790;53.022;12.968;2023-07-13T03:59:31;19.50;55.30
15384;DHT22;7790;53.022;12.968;2023-07-13T04:03:33;19.40;55.60
15384;DHT22;7790;53.022;12.968;2023-07-13T04:07:34;19.30;55.70
15384;DHT22;7790;53.022;12.968;2023-07-13T04:11:35;19.20;56.10
15384;DHT22;7790;53.022;12.968;2023-07-13T04:15:38;19.20;56.70
15384;DHT22;7790;53.022;12.968;2023-07-13T04:19:39;19.30;56.80
15384;DHT22;7790;53.022;12.968;2023-07-13T04:23:40;19.20;56.90
15384;DHT22;7790;53.022;12.968;2023-07-13T04:27:41;19.20;58.00
15384;DHT22;7790;53.022;12.968;2023-07-13T04:31:42;19.20;57.70
15384;DHT22;7790;53.022;12.968;2023-07-13T04:35:43;19.30;58.20
15384;DHT22;7790;53.022;12.968;2023-07-13T04:39:44;19.30;58.70
15384;DHT22;7790;53.022;12.968;2023-07-13T04:43:45;19.30;59.40
15384;DHT22;7790;53.022;12.968;2023-07-13T04:47:46;19.40;59.70
15384;DHT22;7790;53.022;12.968;2023-07-13T04:51:47;19.50;60.20
15384;DHT22;7790;53.022;12.968;2023-07-13T04:55:47;19.50;59.90
15384;DHT22;7790;53.022;12.968;2023-07-13T04:59:48;19.60;59.90
15384;DHT22;7790;53.022;12.968;2023-07-13T05:03:49;19.70;59.80
15384;DHT22;7790;53.022;12.968;2023-07-13T05:07:50;19.80;59.70
15384;DHT22;7790;53.022;12.968;2023-07-13T05:11:51;19.80;59.70
15384;DHT22;7790;53.022;12.968;2023-07-13T05:15:57;19.80;59.40
15384;DHT22;7790;53.022;12.968;2023-07-13T05:19:58;19.90;59.20
15384;DHT22;7790;53.022;12.968;2023-07-13T05:23:59;20.00;59.20
15384;DHT22;7790;53.022;12.968;2023-07-13T05:28:00;20.10;59.10
15384;DHT22;7790;53.022;12.968;2023-07-13T05:32:00;20.10;58.90
15384;DHT22;7790;53.022;12.968;2023-07-13T05:36:01;20.20;58.90
15384;DHT22;7790;53.022;12.968;2023-07-13T05:40:03;20.20;59.00
15384;DHT22;7790;53.022;12.968;2023-07-13T05:44:04;20.30;59.20
15384;DHT22;7790;53.022;12.968;2023-07-13T05:48:05;20.30;58.90
15384;DHT22;7790;53.022;12.968;2023-07-13T05:52:06;20.40;59.10
15384;DHT22;7790;53.022;12.968;2023-07-13T05:56:07;20.50;58.80
15384;DHT22;7790;53.022;12.968;2023-07-13T06:00:08;20.40;59.10
15384;DHT22;7790;53.022;12.968;2023-07-13T06:04:12;20.50;59.20
15384;DHT22;7790;53.022;12.968;2023-07-13T06:08:13;20.60;59.00
15384;DHT22;7790;53.022;12.968;2023-07-13T06:12:14;20.70;58.70
15384;DHT22;7790;53.022;12.968;2023-07-13T06:16:15;20.70;58.50
15384;DHT22;7790;53.022;12.968;2023-07-13T06:20:16;20.80;58.40
15384;DHT22;7790;53.022;12.968;2023-07-13T06:24:17;20.80;58.30
15384;DHT22;7790;53.022;12.968;2023-07-13T06:28:19;20.90;58.20
15384;DHT22;7790;53.022;12.968;2023-07-13T06:32:20;21.00;57.80
15384;DHT22;7790;53.022;12.968;2023-07-13T06:36:21;21.00;57.90
15384;DHT22;7790;53.022;12.968;2023-07-13T06:40:22;21.10;57.70
15384;DHT22;7790;53.022;12.968;2023-07-13T06:44:22;21.10;57.70
15384;DHT22;7790;53.022;12.968;2023-07-13T06:48:23;21.20;57.50
15384;DHT22;7790;53.022;12.968;2023-07-13T06:52:24;21.20;57.40
15384;DHT22;7790;53.022;12.968;2023-07-13T06:56:25;21.20;57.40
15384;DHT22;7790;53.022;12.968;2023-07-13T07:00:26;21.30;57.50
15384;DHT22;7790;53.022;12.968;2023-07-13T07:04:27;21.30;57.40
15384;DHT22;7790;53.022;12.968;2023-07-13T07:08:27;21.30;57.10
15384;DHT22;7790;53.022;12.968;2023-07-13T07:12:28;21.40;57.00
15384;DHT22;7790;53.022;12.968;2023-07-13T07:16:29;21.40;56.80
15384;DHT22;7790;53.022;12.968;2023-07-13T07:20:30;21.40;56.60
15384;DHT22;7790;53.022;12.968;2023-07-13T07:24:33;21.50;56.60
15384;DHT22;7790;53.022;12.968;2023-07-13T07:28:34;21.50;56.50
15384;DHT22;7790;53.022;12.968;2023-07-13T07:32:35;21.50;56.20
15384;DHT22;7790;53.022;12.968;2023-07-13T07:36:36;21.60;55.90
15384;DHT22;7790;53.022;12.968;2023-07-13T07:40:41;21.60;55.60
15384;DHT22;7790;53.022;12.968;2023-07-13T07:44:42;21.60;55.10
15384;DHT22;7790;53.022;12.968;2023-07-13T07:48:42;21.60;54.70
15384;DHT22;7790;53.022;12.968;2023-07-13T07:52:43;21.70;54.50
15384;DHT22;7790;53.022;12.968;2023-07-13T07:56:44;21.70;54.10
15384;DHT22;7790;53.022;12.968;2023-07-13T08:00:45;21.70;54.10
15384;DHT22;7790;53.022;12.968;2023-07-13T08:04:46;21.80;53.80
15384;DHT22;7790;53.022;12.968;2023-07-13T08:08:47;21.80;53.60
15384;DHT22;7790;53.022;12.968;2023-07-13T08:12:48;21.80;53.10
15384;DHT22;7790;53.022;12.968;2023-07-13T08:16:49;21.80;52.80
15384;DHT22;7790;53.022;12.968;2023-07-13T08:20:50;21.80;52.70
15384;DHT22;7790;53.022;12.968;2023-07-13T08:24:51;21.90;52.20
15384;DHT22;7790;53.022;12.968;2023-07-13T08:28:56;22.00;52.20
15384;DHT22;7790;53.022;12.968;2023-07-13T08:32:57;22.00;52.10
15384;DHT22;7790;53.022;12.968;2023-07-13T08:36:58;22.00;51.90
15384;DHT22;7790;53.022;12.968;2023-07-13T08:40:59;22.10;51.70
15384;DHT22;7790;53.022;12.968;2023-07-13T08:45:14;22.20;51.70
15384;DHT22;7790;53.022;12.968;2023-07-13T08:49:21;22.20;51.40
15384;DHT22;7790;53.022;12.968;2023-07-13T08:53:24;22.20;51.20
15384;DHT22;7790;53.022;12.968;2023-07-13T08:57:33;22.20;51.20
15384;DHT22;7790;53.022;12.968;2023-07-13T09:06:02;22.30;51.10
15384;DHT22;7790;53.022;12.968;2023-07-13T09:14:43;22.30;50.60
15384;DHT22;7790;53.022;12.968;2023-07-13T09:18:48;22.30;49.80
15384;DHT22;7790;53.022;12.968;2023-07-13T09:22:50;22.30;49.50
15384;DHT22;7790;53.022;12.968;2023-07-13T09:26:51;22.30;49.40
15384;DHT22;7790;53.022;12.968;2023-07-13T09:35:26;22.30;49.60
15384;DHT22;7790;53.022;12.968;2023-07-13T09:39:40;22.30;49.80
15384;DHT22;7790;53.022;12.968;2023-07-13T09:44:06;22.30;49.50
15384;DHT22;7790;53.022;12.968;2023-07-13T09:48:15;22.30;49.60
15384;DHT22;7790;53.022;12.968;2023-07-13T09:52:16;22.30;49.80
15384;DHT22;7790;53.022;12.968;2023-07-13T09:56:35;22.30;49.90
15384;DHT22;7790;53.022;12.968;2023-07-13T10:00:36;22.40;50.00
15384;DHT22;7790;53.022;12.968;2023-07-13T10:04:37;22.40;50.20
15384;DHT22;7790;53.022;12.968;2023-07-13T10:08:38;22.40;50.20
15384;DHT22;7790;53.022;12.968;2023-07-13T10:12:38;22.50;50.30
15384;DHT22;7790;53.022;12.968;2023-07-13T10:16:40;22.50;50.20
15384;DHT22;7790;53.022;12.968;2023-07-13T10:20:44;22.50;50.30
15384;DHT22;7790;53.022;12.968;2023-07-13T10:24:45;22.60;50.40
15384;DHT22;7790;53.022;12.968;2023-07-13T10:28:49;22.60;50.30
15384;DHT22;7790;53.022;12.968;2023-07-13T10:32:52;22.60;50.30
15384;DHT22;7790;53.022;12.968;2023-07-13T10:36:53;22.60;50.50
15384;DHT22;7790;53.022;12.968;2023-07-13T10:41:04;22.50;50.40
15384;DHT22;7790;53.022;12.968;2023-07-13T10:45:17;22.50;50.60
15384;DHT22;7790;53.022;12.968;2023-07-13T10:49:19;22.50;50.30
15384;DHT22;7790;53.022;12.968;2023-07-13T10:53:31;22.50;50.50
15384;DHT22;7790;53.022;12.968;2023-07-13T10:57:41;22.50;50.50
15384;DHT22;7790;53.022;12.968;2023-07-13T11:01:55;22.50;50.40
15384;DHT22;7790;53.022;12.968;2023-07-13T11:06:16;22.50;50.30
15384;DHT22;7790;53.022;12.968;2023-07-13T11:10:46;22.50;50.20
15384;DHT22;7790;53.022;12.968;2023-07-13T11:23:18;22.70;50.30
15384;DHT22;7790;53.022;12.968;2023-07-13T11:27:41;22.70;50.30
15384;DHT22;7790;53.022;12.968;2023-07-13T11:31:51;22.80;50.30
15384;DHT22;7790;53.022;12.968;2023-07-13T11:36:02;22.80;50.10
15384;DHT22;7790;53.022;12.968;2023-07-13T11:40:04;22.80;49.80
15384;DHT22;7790;53.022;12.968;2023-07-13T11:44:16;22.80;49.90
15384;DHT22;7790;53.022;12.968;2023-07-13T11:48:28;22.80;49.80
15384;DHT22;7790;53.022;12.968;2023-07-13T11:52:35;22.80;49.80
15384;DHT22;7790;53.022;12.968;2023-07-13T11:56:37;22.80;49.60
15384;DHT22;7790;53.022;12.968;2023-07-13T12:00:38;22.80;49.40
15384;DHT22;7790;53.022;12.968;2023-07-13T12:04:42;22.90;48.50
15384;DHT22;7790;53.022;12.968;2023-07-13T12:08:44;22.90;48.50
15384;DHT22;7790;53.022;12.968;2023-07-13T12:12:53;22.90;48.40
15384;DHT22;7790;53.022;12.968;2023-07-13T12:16:55;22.90;48.60
15384;DHT22;7790;53.022;12.968;2023-07-13T12:20:58;22.80;48.70
15384;DHT22;7790;53.022;12.968;2023-07-13T12:25:00;22.80;48.50
15384;DHT22;7790;53.022;12.968;2023-07-13T12:29:01;22.90;48.30
15384;DHT22;7790;53.022;12.968;2023-07-13T12:33:10;22.90;48.20
15384;DHT22;7790;53.022;12.968;2023-07-13T12:37:12;22.90;48.20
15384;DHT22;7790;53.022;12.968;2023-07-13T12:41:15;22.90;47.90
15384;DHT22;7790;53.022;12.968;2023-07-13T12:45:26;22.80;47.90
15384;DHT22;7790;53.022;12.968;2023-07-13T12:49:31;22.80;47.60
15384;DHT22;7790;53.022;12.968;2023-07-13T12:53:40;22.90;47.70
15384;DHT22;7790;53.022;12.968;2023-07-13T12:57:55;22.90;47.60
15384;DHT22;7790;53.022;12.968;2023-07-13T13:01:57;22.90;47.30
15384;DHT22;7790;53.022;12.968;2023-07-13T13:10:19;22.90;47.50
15384;DHT22;7790;53.022;12.968;2023-07-13T13:14:21;22.90;47.40
15384;DHT22;7790;53.022;12.968;2023-07-13T13:18:23;22.90;47.30
15384;DHT22;7790;53.022;12.968;2023-07-13T13:22:24;22.90;46.90
15384;DHT22;7790;53.022;12.968;2023-07-13T13:26:25;23.00;47.20
15384;DHT22;7790;53.022;12.968;2023-07-13T13:30:26;23.00;47.40
15384;DHT22;7790;53.022;12.968;2023-07-13T13:34:27;23.00;47.10
15384;DHT22;7790;53.022;12.968;2023-07-13T13:38:28;23.00;47.00
15384;DHT22;7790;53.022;12.968;2023-07-13T13:42:29;23.00;47.50
15384;DHT22;7790;53.022;12.968;2023-07-13T13:46:30;23.00;46.60
15384;DHT22;7790;53.022;12.968;2023-07-13T13:50:31;23.10;46.10
15384;DHT22;7790;53.022;12.968;2023-07-13T13:54:32;23.10;46.20
15384;DHT22;7790;53.022;12.968;2023-07-13T13:58:33;23.10;46.00
15384;DHT22;7790;53.022;12.968;2023-07-13T14:02:34;23.10;46.30
15384;DHT22;7790;53.022;12.968;2023-07-13T14:06:35;23.10;46.30
15384;DHT22;7790;53.022;12.968;2023-07-13T14:10:36;23.20;46.40
15384;DHT22;7790;53.022;12.968;2023-07-13T14:14:37;23.20;46.80
15384;DHT22;7790;53.022;12.968;2023-07-13T14:18:38;23.20;46.30
15384;DHT22;7790;53.022;12.968;2023-07-13T14:22:39;23.20;46.00
15384;DHT22;7790;53.022;12.968;2023-07-13T14:26:41;23.20;45.90
15384;DHT22;7790;53.022;12.968;2023-07-13T14:30:42;23.20;46.00
15384;DHT22;7790;53.022;12.968;2023-07-13T14:34:43;23.20;45.50
15384;DHT22;7790;53.022;12.968;2023-07-13T14:38:44;23.20;45.50
15384;DHT22;7790;53.022;12.968;2023-07-13T14:42:45;23.20;45.70
15384;DHT22;7790;53.022;12.968;2023-07-13T14:46:47;23.20;46.00
15384;DHT22;7790;53.022;12.968;2023-07-13T14:50:56;23.30;44.70
15384;DHT22;7790;53.022;12.968;2023-07-13T14:54:58;23.30;44.80
15384;DHT22;7790;53.022;12.968;2023-07-13T14:58:58;23.20;44.40
15384;DHT22;7790;53.022;12.968;2023-07-13T15:03:00;23.20;44.80
15384;DHT22;7790;53.022;12.968;2023-07-13T15:07:02;23.20;45.00
15384;DHT22;7790;53.022;12.968;2023-07-13T15:11:06;23.20;45.20
15384;DHT22;7790;53.022;12.968;2023-07-13T15:15:08;23.20;45.30
15384;DHT22;7790;53.022;12.968;2023-07-13T15:19:10;23.20;45.30
15384;DHT22;7790;53.022;12.968;2023-07-13T15:23:12;23.20;45.40
15384;DHT22;7790;53.022;12.968;2023-07-13T15:27:13;23.20;45.40
15384;DHT22;7790;53.022;12.968;2023-07-13T15:31:21;23.20;45.50
15384;DHT22;7790;53.022;12.968;2023-07-13T15:35:25;23.10;46.00
15384;DHT22;7790;53.022;12.968;2023-07-13T15:39:26;23.10;46.00
15384;DHT22;7790;53.022;12.968;2023-07-13T15:43:32;23.10;46.20
15384;DHT22;7790;53.022;12.968;2023-07-13T15:47:33;23.10;46.50
15384;DHT22;7790;53.022;12.968;2023-07-13T15:51:34;23.20;46.60
15384;DHT22;7790;53.022;12.968;2023-07-13T15:55:39;23.20;46.70
15384;DHT22;7790;53.022;12.968;2023-07-13T15:59:43;23.20;46.90
15384;DHT22;7790;53.022;12.968;2023-07-13T16:03:46;23.20;46.70
15384;DHT22;7790;53.022;12.968;2023-07-13T16:07:49;23.20;46.70
15384;DHT22;7790;53.022;12.968;2023-07-13T16:11:51;23.20;46.70
15384;DHT22;7790;53.022;12.968;2023-07-13T16:15:53;22.90;45.30
15384;DHT22;7790;53.022;12.968;2023-07-13T16:19:56;22.90;45.80
15384;DHT22;7790;53.022;12.968;2023-07-13T16:23:58;22.70;45.70
15384;DHT22;7790;53.022;12.968;2023-07-13T16:27:59;22.70;46.10
15384;DHT22;7790;53.022;12.968;2023-07-13T16:32:09;22.60;46.40
15384;DHT22;7790;53.022;12.968;2023-07-13T16:36:12;22.40;46.50
15384;DHT22;7790;53.022;12.968;2023-07-13T16:40:25;22.40;47.70
15384;DHT22;7790;53.022;12.968;2023-07-13T16:44:27;22.10;49.50
15384;DHT22;7790;53.022;12.968;2023-07-13T16:48:30;22.00;50.90
15384;DHT22;7790;53.022;12.968;2023-07-13T16:52:31;21.80;52.00
15384;DHT22;7790;53.022;12.968;2023-07-13T16:56:31;21.80;53.00
15384;DHT22;7790;53.022;12.968;2023-07-13T17:00:35;21.70;53.40
15384;DHT22;7790;53.022;12.968;2023-07-13T17:04:37;21.90;53.30
15384;DHT22;7790;53.022;12.968;2023-07-13T17:08:38;22.00;53.00
15384;DHT22;7790;53.022;12.968;2023-07-13T17:12:39;21.50;54.40
15384;DHT22;7790;53.022;12.968;2023-07-13T17:16:41;21.20;55.60
15384;DHT22;7790;53.022;12.968;2023-07-13T17:20:44;21.20;56.50
15384;DHT22;7790;53.022;12.968;2023-07-13T17:24:47;21.10;56.80
15384;DHT22;7790;53.022;12.968;2023-07-13T17:28:49;20.80;58.50
15384;DHT22;7790;53.022;12.968;2023-07-13T17:32:51;21.10;58.60
15384;DHT22;7790;53.022;12.968;2023-07-13T17:36:55;20.90;58.30
15384;DHT22;7790;53.022;12.968;2023-07-13T17:41:00;21.10;58.30
15384;DHT22;7790;53.022;12.968;2023-07-13T17:45:01;21.20;57.90
15384;DHT22;7790;53.022;12.968;2023-07-13T17:49:02;21.30;58.20
15384;DHT22;7790;53.022;12.968;2023-07-13T17:53:19;21.30;58.50
15384;DHT22;7790;53.022;12.968;2023-07-13T17:57:20;21.30;58.80
15384;DHT22;7790;53.022;12.968;2023-07-13T18:01:22;21.20;59.00
15384;DHT22;7790;53.022;12.968;2023-07-13T18:05:27;21.20;59.10
15384;DHT22;7790;53.022;12.968;2023-07-13T18:09:27;21.10;59.40
15384;DHT22;7790;53.022;12.968;2023-07-13T18:13:30;21.00;59.80
15384;DHT22;7790;53.022;12.968;2023-07-13T18:17:34;21.00;60.50
15384;DHT22;7790;53.022;12.968;2023-07-13T18:21:35;21.00;60.50
15384;DHT22;7790;53.022;12.968;2023-07-13T18:25:37;21.10;60.70
15384;DHT22;7790;53.022;12.968;2023-07-13T18:29:38;21.10;60.30
15384;DHT22;7790;53.022;12.968;2023-07-13T18:33:39;21.10;61.00
15384;DHT22;7790;53.022;12.968;2023-07-13T18:37:43;21.00;61.00
15384;DHT22;7790;53.022;12.968;2023-07-13T18:41:45;20.80;61.60
15384;DHT22;7790;53.022;12.968;2023-07-13T18:45:46;20.80;62.70
15384;DHT22;7790;53.022;12.968;2023-07-13T18:49:47;20.80;62.10
15384;DHT22;7790;53.022;12.968;2023-07-13T18:53:48;20.40;64.10
15384;DHT22;7790;53.022;12.968;2023-07-13T18:57:49;20.30;65.30
15384;DHT22;7790;53.022;12.968;2023-07-13T19:01:57;20.20;66.10
15384;DHT22;7790;53.022;12.968;2023-07-13T19:05:58;20.20;65.70
15384;DHT22;7790;53.022;12.968;2023-07-13T19:10:00;20.00;66.80
15384;DHT22;7790;53.022;12.968;2023-07-13T19:14:01;19.90;67.00
15384;DHT22;7790;53.022;12.968;2023-07-13T19:18:11;20.10;66.90
15384;DHT22;7790;53.022;12.968;2023-07-13T19:22:14;19.90;67.80
15384;DHT22;7790;53.022;12.968;2023-07-13T19:26:30;19.90;68.20
15384;DHT22;7790;53.022;12.968;2023-07-13T19:30:31;19.80;68.30
15384;DHT22;7790;53.022;12.968;2023-07-13T19:34:32;19.80;68.40
15384;DHT22;7790;53.022;12.968;2023-07-13T19:38:34;19.90;68.10
15384;DHT22;7790;53.022;12.968;2023-07-13T19:42:35;20.00;68.00
15384;DHT22;7790;53.022;12.968;2023-07-13T19:46:36;20.20;66.50
15384;DHT22;7790;53.022;12.968;2023-07-13T19:50:38;19.90;68.00
15384;DHT22;7790;53.022;12.968;2023-07-13T19:54:40;19.70;67.80
15384;DHT22;7790;53.022;12.968;2023-07-13T19:58:44;19.60;68.40
15384;DHT22;7790;53.022;12.968;2023-07-13T20:02:45;19.50;69.20
15384;DHT22;7790;53.022;12.968;2023-07-13T20:06:47;19.50;69.30
15384;DHT22;7790;53.022;12.968;2023-07-13T20:10:48;19.50;67.90
15384;DHT22;7790;53.022;12.968;2023-07-13T20:14:52;19.40;68.50
15384;DHT22;7790;53.022;12.968;2023-07-13T20:18:53;19.50;68.10
15384;DHT22;7790;53.022;12.968;2023-07-13T20:22:54;19.40;67.60
15384;DHT22;7790;53.022;12.968;2023-07-13T20:26:56;19.40;67.70
15384;DHT22;7790;53.022;12.968;2023-07-13T20:30:57;19.30;67.00
15384;DHT22;7790;53.022;12.968;2023-07-13T20:34:58;19.10;67.60
15384;DHT22;7790;53.022;12.968;2023-07-13T20:38:59;18.90;68.30
15384;DHT22;7790;53.022;12.968;2023-07-13T20:43:01;18.80;68.50
15384;DHT22;7790;53.022;12.968;2023-07-13T20:47:02;18.70;68.20
15384;DHT22;7790;53.022;12.968;2023-07-13T20:51:03;18.70;68.20
15384;DHT22;7790;53.022;12.968;2023-07-13T20:55:20;18.60;68.10
15384;DHT22;7790;53.022;12.968;2023-07-13T20:59:21;18.50;68.00
15384;DHT22;7790;53.022;12.968;2023-07-13T21:03:27;18.60;68.20
15384;DHT22;7790;53.022;12.968;2023-07-13T21:07:28;18.70;68.00
15384;DHT22;7790;53.022;12.968;2023-07-13T21:11:29;18.80;67.90
15384;DHT22;7790;53.022;12.968;2023-07-13T21:15:32;18.80;68.00
15384;DHT22;7790;53.022;12.968;2023-07-13T21:19:33;18.90;67.00
15384;DHT22;7790;53.022;12.968;2023-07-13T21:23:35;18.70;66.90
15384;DHT22;7790;53.022;12.968;2023-07-13T21:27:39;18.70;66.70
15384;DHT22;7790;53.022;12.968;2023-07-13T21:31:40;18.80;65.70
15384;DHT22;7790;53.022;12.968;2023-07-13T21:35:41;19.00;64.90
15384;DHT22;7790;53.022;12.968;2023-07-13T21:39:48;19.20;64.60
15384;DHT22;7790;53.022;12.968;2023-07-13T21:43:49;19.10;64.40
15384;DHT22;7790;53.022;12.968;2023-07-13T21:47:51;19.20;64.20
15384;DHT22;7790;53.022;12.968;2023-07-13T21:51:53;19.10;63.80
15384;DHT22;7790;53.022;12.968;2023-07-13T21:55:56;19.10;63.30
15384;DHT22;7790;53.022;12.968;2023-07-13T21:59:58;19.20;63.30
15384;DHT22;7790;53.022;12.968;2023-07-13T22:03:59;19.20;63.10
15384;DHT22;7790;53.022;12.968;2023-07-13T22:08:00;19.20;63.30
15384;DHT22;7790;53.022;12.968;2023-07-13T22:12:00;19.30;63.30
15384;DHT22;7790;53.022;12.968;2023-07-13T22:16:04;19.40;63.40
15384;DHT22;7790;53.022;12.968;2023-07-13T22:20:08;19.40;62.90
15384;DHT22;7790;53.022;12.968;2023-07-13T22:24:18;19.40;62.30
15384;DHT22;7790;53.022;12.968;2023-07-13T22:28:23;19.50;61.50
15384;DHT22;7790;53.022;12.968;2023-07-13T22:32:24;19.50;61.30
15384;DHT22;7790;53.022;12.968;2023-07-13T22:36:25;19.40;60.90
15384;DHT22;7790;53.022;12.968;2023-07-13T22:40:27;19.40;60.90
15384;DHT22;7790;53.022;12.968;2023-07-13T22:44:28;19.40;60.60
15384;DHT22;7790;53.022;12.968;2023-07-13T22:48:41;19.40;60.50
15384;DHT22;7790;53.022;12.968;2023-07-13T22:52:43;19.30;60.80
15384;DHT22;7790;53.022;12.968;2023-07-13T22:56:44;19.20;60.70
15384;DHT22;7790;53.022;12.968;2023-07-13T23:00:45;19.20;60.30
15384;DHT22;7790;53.022;12.968;2023-07-13T23:04:46;19.10;60.80
15384;DHT22;7790;53.022;12.968;2023-07-13T23:08:50;19.00;61.50
15384;DHT22;7790;53.022;12.968;2023-07-13T23:12:51;19.10;61.40
15384;DHT22;7790;53.022;12.968;2023-07-13T23:16:58;19.20;60.50
15384;DHT22;7790;53.022;12.968;2023-07-13T23:20:59;19.20;60.40
15384;DHT22;7790;53.022;12.968;2023-07-13T23:25:01;19.20;60.00
15384;DHT22;7790;53.022;12.968;2023-07-13T23:29:02;19.20;60.00
15384;DHT22;7790;53.022;12.968;2023-07-13T23:33:25;19.10;59.90
15384;DHT22;7790;53.022;12.968;2023-07-13T23:37:27;19.10;60.10
15384;DHT22;7790;53.022;12.968;2023-07-13T23:41:29;19.20;59.90
15384;DHT22;7790;53.022;12.968;2023-07-13T23:45:30;19.20;59.70
15384;DHT22;7790;53.022;12.968;2023-07-13T23:49:32;19.10;60.00
15384;DHT22;7790;53.022;12.968;2023-07-13T23:53:33;19.10;59.70
15384;DHT22;7790;53.022;12.968;2023-07-13T23:57:34;19.00;59.80
